createdAt,value
2022-10-30T00:00:41.840Z,21.59
2022-10-30T00:03:12.153Z,21.64
2022-10-30T00:05:41.502Z,21.64
2022-10-30T00:08:11.100Z,21.65
2022-10-30T00:10:38.553Z,21.58
2022-10-30T00:13:07.413Z,21.54
2022-10-30T00:15:35.162Z,21.51
2022-10-30T00:18:02.998Z,21.50
2022-10-30T00:20:30.514Z,21.42
2022-10-30T00:22:57.800Z,21.40
2022-10-30T00:25:25.300Z,21.34
2022-10-30T00:27:52.358Z,21.30
2022-10-30T00:30:20.877Z,21.24
2022-10-30T00:32:47.880Z,21.17
2022-10-30T00:35:15.033Z,21.15
2022-10-30T00:37:42.113Z,21.17
2022-10-30T00:40:14.113Z,21.14
2022-10-30T00:42:41.126Z,21.13
2022-10-30T00:45:12.520Z,21.13
2022-10-30T00:47:46.494Z,21.13
2022-10-30T00:50:21.804Z,21.16
2022-10-30T00:52:53.793Z,21.18
2022-10-30T00:55:26.796Z,21.19
2022-10-30T00:57:55.425Z,21.15
2022-10-30T01:00:27.393Z,21.11
2022-10-30T01:02:58.136Z,21.10
2022-10-30T01:05:30.256Z,21.08
2022-10-30T01:07:57.609Z,21.12
2022-10-30T01:10:25.613Z,21.15
2022-10-30T01:12:56.233Z,21.16
2022-10-30T01:15:30.693Z,21.11
2022-10-30T01:18:21.813Z,21.11
2022-10-30T01:21:08.594Z,21.08
2022-10-30T01:23:49.114Z,21.02
2022-10-30T01:26:29.574Z,21.04
2022-10-30T01:29:13.258Z,21.00
2022-10-30T01:31:58.876Z,21.55
2022-10-30T01:34:39.698Z,21.70
2022-10-30T01:37:16.116Z,21.79
2022-10-30T01:39:43.197Z,21.77
2022-10-30T01:42:30.814Z,22.04
2022-10-30T01:44:58.374Z,22.16
2022-10-30T01:47:38.296Z,22.06
2022-10-30T01:50:26.535Z,22.25
2022-10-30T01:53:03.799Z,22.11
2022-10-30T01:55:42.755Z,22.21
2022-10-30T01:58:18.612Z,22.18
2022-10-30T02:00:52.907Z,22.18
2022-10-30T02:03:20.774Z,22.10
2022-10-30T02:05:51.938Z,22.17
2022-10-30T02:08:20.052Z,22.07
2022-10-30T02:10:51.113Z,22.04
2022-10-30T02:13:18.619Z,22.00
2022-10-30T02:15:48.932Z,22.05
2022-10-30T02:18:16.514Z,22.00
2022-10-30T02:20:45.017Z,21.96
2022-10-30T02:23:12.501Z,21.99
2022-10-30T02:25:39.673Z,21.94
2022-10-30T02:28:06.694Z,21.99
2022-10-30T02:30:34.013Z,21.97
2022-10-30T02:33:01.528Z,22.03
2022-10-30T02:35:30.133Z,21.98
2022-10-30T02:37:59.034Z,21.99
2022-10-30T02:40:26.395Z,22.07
2022-10-30T02:42:54.115Z,22.09
2022-10-30T02:45:21.375Z,22.02
2022-10-30T02:47:48.498Z,21.88
2022-10-30T02:50:15.836Z,21.94
2022-10-30T02:52:42.857Z,21.89
2022-10-30T02:55:11.397Z,21.84
2022-10-30T02:57:38.454Z,21.78
2022-10-30T03:00:06.976Z,21.79
2022-10-30T03:02:34.093Z,21.68
2022-10-30T03:05:01.193Z,21.65
2022-10-30T03:07:28.254Z,21.58
2022-10-30T03:09:55.504Z,21.58
2022-10-30T03:12:24.016Z,21.71
2022-10-30T03:14:51.094Z,21.57
2022-10-30T03:17:18.173Z,21.53
2022-10-30T03:19:45.166Z,21.53
2022-10-30T03:22:12.298Z,21.50
2022-10-30T03:24:39.394Z,21.42
2022-10-30T03:27:06.854Z,21.46
2022-10-30T03:29:35.333Z,21.48
2022-10-30T03:32:02.335Z,21.43
2022-10-30T03:34:29.374Z,21.49
2022-10-30T03:36:56.415Z,21.56
2022-10-30T03:39:23.599Z,21.47
2022-10-30T03:41:50.620Z,21.51
2022-10-30T03:44:17.653Z,21.46
2022-10-30T03:46:46.114Z,21.48
2022-10-30T03:49:13.187Z,21.51
2022-10-30T03:51:40.253Z,21.45
2022-10-30T03:54:07.255Z,21.53
2022-10-30T03:56:34.294Z,21.41
2022-10-30T03:59:01.355Z,21.33
2022-10-30T04:01:28.511Z,21.40
2022-10-30T04:03:57.133Z,21.38
2022-10-30T04:06:24.213Z,21.43
2022-10-30T04:08:51.214Z,21.40
2022-10-30T04:11:18.356Z,21.47
2022-10-30T04:13:45.354Z,21.47
2022-10-30T04:16:12.756Z,21.48
2022-10-30T04:18:39.793Z,21.40
2022-10-30T04:21:08.277Z,21.36
2022-10-30T04:23:35.314Z,21.39
2022-10-30T04:26:02.379Z,21.29
2022-10-30T04:28:29.396Z,21.17
2022-10-30T04:30:56.753Z,21.17
2022-10-30T04:33:23.833Z,21.18
2022-10-30T04:35:50.913Z,21.21
2022-10-30T04:38:19.416Z,21.20
2022-10-30T04:40:46.454Z,21.24
2022-10-30T04:43:14.794Z,21.28
2022-10-30T04:45:42.379Z,21.31
2022-10-30T04:48:13.993Z,21.28
2022-10-30T04:50:41.081Z,21.21
2022-10-30T04:53:12.933Z,21.17
2022-10-30T04:55:42.215Z,21.23
2022-10-30T04:58:09.814Z,21.24
2022-10-30T05:00:36.995Z,21.17
2022-10-30T05:03:04.556Z,21.18
2022-10-30T05:05:32.781Z,21.15
2022-10-30T05:08:00.413Z,21.19
2022-10-30T05:10:28.053Z,21.13
2022-10-30T05:12:56.493Z,21.11
2022-10-30T05:15:23.534Z,21.11
2022-10-30T05:17:52.435Z,21.11
2022-10-30T05:20:19.558Z,21.00
2022-10-30T05:22:47.272Z,21.03
2022-10-30T05:25:14.413Z,21.05
2022-10-30T05:27:41.455Z,20.89
2022-10-30T05:30:11.096Z,20.99
2022-10-30T05:32:38.154Z,20.97
2022-10-30T05:35:05.673Z,21.11
2022-10-30T05:37:32.894Z,21.07
2022-10-30T05:39:59.935Z,21.15
2022-10-30T05:42:26.937Z,21.22
2022-10-30T05:45:02.184Z,21.11
2022-10-30T05:47:31.194Z,21.07
2022-10-30T05:49:58.213Z,21.09
2022-10-30T05:52:25.252Z,21.14
2022-10-30T05:54:52.193Z,21.11
2022-10-30T05:57:19.273Z,20.98
2022-10-30T05:59:46.345Z,20.97
2022-10-30T06:02:13.827Z,20.89
2022-10-30T06:04:42.495Z,20.84
2022-10-30T06:07:10.534Z,20.89
2022-10-30T06:09:37.576Z,20.94
2022-10-30T06:12:05.220Z,20.85
2022-10-30T06:14:32.274Z,20.87
2022-10-30T06:16:59.314Z,20.79
2022-10-30T06:19:26.334Z,20.87
2022-10-30T06:21:54.772Z,20.80
2022-10-30T06:24:21.813Z,20.83
2022-10-30T06:26:48.934Z,20.81
2022-10-30T06:29:15.934Z,20.82
2022-10-30T06:31:42.980Z,20.79
2022-10-30T06:34:10.014Z,20.77
2022-10-30T06:36:37.077Z,20.76
2022-10-30T06:39:05.693Z,20.92
2022-10-30T06:41:32.736Z,20.87
2022-10-30T06:43:59.994Z,20.83
2022-10-30T06:46:30.716Z,20.80
2022-10-30T06:49:00.818Z,20.90
2022-10-30T06:51:28.293Z,20.91
2022-10-30T06:53:55.296Z,20.91
2022-10-30T06:56:23.813Z,21.06
2022-10-30T06:58:50.860Z,21.12
2022-10-30T07:01:17.971Z,21.29
2022-10-30T07:03:45.094Z,21.40
2022-10-30T07:06:12.153Z,21.49
2022-10-30T07:08:39.216Z,21.71
2022-10-30T07:11:06.312Z,21.80
2022-10-30T07:13:34.794Z,21.90
2022-10-30T07:16:01.854Z,22.01
2022-10-30T07:18:28.914Z,22.12
2022-10-30T07:20:56.100Z,22.24
2022-10-30T07:23:23.394Z,22.36
2022-10-30T07:25:50.476Z,22.39
2022-10-30T07:28:17.534Z,22.53
2022-10-30T07:30:45.994Z,22.61
2022-10-30T07:33:13.033Z,22.73
2022-10-30T07:35:40.033Z,22.87
2022-10-30T07:38:11.133Z,23.04
2022-10-30T07:40:38.513Z,23.20
2022-10-30T07:43:06.409Z,23.39
2022-10-30T07:45:33.636Z,23.64
2022-10-30T07:48:02.418Z,23.82
2022-10-30T07:50:29.914Z,23.82
2022-10-30T07:52:57.053Z,23.78
2022-10-30T07:55:24.486Z,23.66
2022-10-30T07:57:51.618Z,23.62
2022-10-30T08:00:19.274Z,23.52
2022-10-30T08:02:50.080Z,23.44
2022-10-30T08:05:18.833Z,23.42
2022-10-30T08:07:47.593Z,23.34
2022-10-30T08:10:15.313Z,23.32
2022-10-30T08:12:42.394Z,23.30
2022-10-30T08:15:10.653Z,23.40
2022-10-30T08:17:42.053Z,23.47
2022-10-30T08:20:10.674Z,23.52
2022-10-30T08:22:46.053Z,23.69
2022-10-30T08:25:13.334Z,23.84
2022-10-30T08:27:48.932Z,23.90
2022-10-30T08:30:15.974Z,24.01
2022-10-30T08:32:43.054Z,23.98
2022-10-30T08:35:10.213Z,24.04
2022-10-30T08:37:37.253Z,24.19
2022-10-30T08:40:07.712Z,24.35
2022-10-30T08:42:34.832Z,24.76
2022-10-30T08:45:02.005Z,24.92
2022-10-30T08:47:29.134Z,24.81
2022-10-30T08:49:56.214Z,24.86
2022-10-30T08:52:23.272Z,25.03
2022-10-30T08:54:50.341Z,25.11
2022-10-30T08:57:18.854Z,24.90
2022-10-30T08:59:45.933Z,25.03
2022-10-30T09:02:13.153Z,25.10
2022-10-30T09:04:40.294Z,25.18
2022-10-30T09:07:10.297Z,25.22
2022-10-30T09:09:39.973Z,25.37
2022-10-30T09:12:07.236Z,25.50
2022-10-30T09:14:35.735Z,25.46
2022-10-30T09:17:02.914Z,25.63
2022-10-30T09:19:30.051Z,25.68
2022-10-30T09:21:57.053Z,25.72
2022-10-30T09:24:25.406Z,25.85
2022-10-30T09:26:52.674Z,25.74
2022-10-30T09:29:19.753Z,25.82
2022-10-30T09:31:48.272Z,26.00
2022-10-30T09:34:15.508Z,26.08
2022-10-30T09:36:42.613Z,26.20
2022-10-30T09:39:09.794Z,26.27
2022-10-30T09:41:57.432Z,25.93
2022-10-30T09:44:40.532Z,25.85
2022-10-30T09:47:23.665Z,25.91
2022-10-30T09:50:03.533Z,26.03
2022-10-30T09:52:42.713Z,26.07
2022-10-30T09:55:28.815Z,26.00
2022-10-30T09:58:13.410Z,25.91
2022-10-30T10:00:50.001Z,26.02
2022-10-30T10:03:53.572Z,26.04
2022-10-30T10:06:23.493Z,25.99
2022-10-30T10:08:56.953Z,26.08
2022-10-30T10:11:32.133Z,25.93
2022-10-30T10:14:07.174Z,25.82
2022-10-30T10:16:38.593Z,26.03
2022-10-30T10:19:15.193Z,26.09
2022-10-30T10:21:48.053Z,26.15
2022-10-30T10:24:21.115Z,25.99
2022-10-30T10:26:50.422Z,26.06
2022-10-30T10:29:32.374Z,26.07
2022-10-30T10:32:46.854Z,26.36
2022-10-30T10:35:34.774Z,26.28
2022-10-30T10:38:12.244Z,26.21
2022-10-30T10:40:52.882Z,26.31
2022-10-30T10:43:36.773Z,26.35
2022-10-30T10:46:30.700Z,26.17
2022-10-30T10:49:16.226Z,26.34
2022-10-30T10:51:52.714Z,26.24
2022-10-30T10:54:27.215Z,26.23
2022-10-30T10:56:57.135Z,26.34
2022-10-30T10:59:34.894Z,26.45
2022-10-30T11:02:28.412Z,26.57
2022-10-30T11:05:05.056Z,26.69
2022-10-30T11:07:39.734Z,26.77
2022-10-30T11:10:13.813Z,26.62
2022-10-30T11:12:41.515Z,26.60
2022-10-30T11:15:29.544Z,26.61
2022-10-30T11:18:01.963Z,26.57
2022-10-30T11:20:37.035Z,26.44
2022-10-30T11:23:43.093Z,26.35
2022-10-30T11:26:28.535Z,26.16
2022-10-30T11:28:58.694Z,26.23
2022-10-30T11:31:27.973Z,26.34
2022-10-30T11:33:55.016Z,26.27
2022-10-30T11:36:25.436Z,26.42
2022-10-30T11:39:09.374Z,26.10
2022-10-30T11:41:37.234Z,26.06
2022-10-30T11:44:05.944Z,26.10
2022-10-30T11:46:35.993Z,26.28
2022-10-30T11:49:03.081Z,26.27
2022-10-30T11:51:36.048Z,26.18
2022-10-30T11:54:07.113Z,26.01
2022-10-30T11:56:35.114Z,25.80
2022-10-30T11:59:04.574Z,26.06
2022-10-30T12:01:36.071Z,26.28
2022-10-30T12:04:25.195Z,26.38
2022-10-30T12:07:08.043Z,26.08
2022-10-30T12:09:45.374Z,26.18
2022-10-30T12:12:23.894Z,26.35
2022-10-30T12:14:52.916Z,26.36
2022-10-30T12:17:22.701Z,26.37
2022-10-30T12:19:54.154Z,26.29
2022-10-30T12:22:30.794Z,26.07
2022-10-30T12:25:03.676Z,26.23
2022-10-30T12:27:35.895Z,26.28
2022-10-30T12:30:09.730Z,26.37
2022-10-30T12:32:46.477Z,26.24
2022-10-30T12:35:31.775Z,26.21
2022-10-30T12:38:03.131Z,26.37
2022-10-30T12:40:41.721Z,26.24
2022-10-30T12:43:19.856Z,26.25
2022-10-30T12:45:51.001Z,26.18
2022-10-30T12:48:25.917Z,26.20
2022-10-30T12:51:09.416Z,26.10
2022-10-30T12:53:44.668Z,26.19
2022-10-30T12:56:19.317Z,26.23
2022-10-30T12:59:01.257Z,26.13
2022-10-30T13:01:35.854Z,26.04
2022-10-30T13:04:13.338Z,26.05
2022-10-30T13:06:51.036Z,26.10
2022-10-30T13:09:27.657Z,26.09
2022-10-30T13:12:03.382Z,26.13
2022-10-30T13:14:38.919Z,26.02
2022-10-30T13:17:11.756Z,26.03
2022-10-30T13:19:40.695Z,25.98
2022-10-30T13:22:16.820Z,25.99
2022-10-30T13:24:59.271Z,25.88
2022-10-30T13:27:41.877Z,25.75
2022-10-30T13:30:15.655Z,25.52
2022-10-30T13:33:03.781Z,25.43
2022-10-30T13:35:41.736Z,25.43
2022-10-30T13:38:34.622Z,25.51
2022-10-30T13:41:14.938Z,25.59
2022-10-30T13:43:54.156Z,25.61
2022-10-30T13:46:39.257Z,25.62
2022-10-30T13:49:22.316Z,25.63
2022-10-30T13:51:59.575Z,25.69
2022-10-30T13:54:37.156Z,25.53
2022-10-30T13:57:16.498Z,25.49
2022-10-30T14:00:02.097Z,25.38
2022-10-30T14:02:43.332Z,25.45
2022-10-30T14:05:31.436Z,25.42
2022-10-30T14:08:08.456Z,25.46
2022-10-30T14:10:45.820Z,25.33
2022-10-30T14:13:23.816Z,25.36
2022-10-30T14:15:59.915Z,25.33
2022-10-30T14:18:30.137Z,25.34
2022-10-30T14:20:59.395Z,25.19
2022-10-30T14:23:34.538Z,25.27
2022-10-30T14:26:21.837Z,25.25
2022-10-30T14:28:54.838Z,25.31
2022-10-30T14:31:36.140Z,25.34
2022-10-30T14:34:03.380Z,25.41
2022-10-30T14:36:49.116Z,25.34
2022-10-30T14:39:40.397Z,25.29
2022-10-30T14:42:15.508Z,25.24
2022-10-30T14:45:08.918Z,25.31
2022-10-30T14:47:51.017Z,25.31
2022-10-30T14:50:38.397Z,25.31
2022-10-30T14:53:45.116Z,25.30
2022-10-30T14:56:29.736Z,25.31
2022-10-30T14:59:20.379Z,25.27
2022-10-30T15:02:00.089Z,25.26
2022-10-30T15:04:44.996Z,25.23
2022-10-30T15:07:26.536Z,25.25
2022-10-30T15:10:11.398Z,25.21
2022-10-30T15:13:02.197Z,25.22
2022-10-30T15:15:31.540Z,25.21
2022-10-30T15:18:04.238Z,25.16
2022-10-30T15:20:41.935Z,25.15
2022-10-30T15:23:14.298Z,25.16
2022-10-30T15:25:47.639Z,25.11
2022-10-30T15:28:19.443Z,25.08
2022-10-30T15:31:00.376Z,25.02
2022-10-30T15:33:28.976Z,24.99
2022-10-30T15:35:58.497Z,24.96
2022-10-30T15:38:25.918Z,24.91
2022-10-30T15:40:58.719Z,24.88
2022-10-30T15:43:31.888Z,24.87
2022-10-30T15:46:00.160Z,24.86
2022-10-30T15:48:30.687Z,24.89
2022-10-30T15:51:03.017Z,24.87
2022-10-30T15:53:38.398Z,24.83
2022-10-30T15:56:11.824Z,24.82
2022-10-30T15:58:44.336Z,24.81
2022-10-30T16:01:26.016Z,24.77
2022-10-30T16:03:54.598Z,24.77
2022-10-30T16:06:25.988Z,24.77
2022-10-30T16:08:53.216Z,24.70
2022-10-30T16:11:21.450Z,24.68
2022-10-30T16:13:50.058Z,24.61
2022-10-30T16:16:22.849Z,24.58
2022-10-30T16:18:51.736Z,24.49
2022-10-30T16:21:24.396Z,24.44
2022-10-30T16:23:54.900Z,24.36
2022-10-30T16:26:27.437Z,24.32
2022-10-30T16:28:54.556Z,24.27
2022-10-30T16:31:22.218Z,24.23
2022-10-30T16:33:50.356Z,24.19
2022-10-30T16:36:19.997Z,24.13
2022-10-30T16:38:51.015Z,24.05
2022-10-30T16:41:24.251Z,23.96
2022-10-30T16:44:20.237Z,23.90
2022-10-30T16:46:51.680Z,23.83
2022-10-30T16:49:22.258Z,23.77
2022-10-30T16:51:57.177Z,23.68
2022-10-30T16:54:30.335Z,23.64
2022-10-30T16:57:00.316Z,23.59
2022-10-30T16:59:35.860Z,23.56
2022-10-30T17:02:06.965Z,23.50
2022-10-30T17:04:35.645Z,23.41
2022-10-30T17:07:15.462Z,23.35
2022-10-30T17:09:46.036Z,23.25
2022-10-30T17:12:18.216Z,23.16
2022-10-30T17:14:52.956Z,23.14
2022-10-30T17:17:32.138Z,23.16
2022-10-30T17:20:05.638Z,23.11
2022-10-30T17:22:33.578Z,23.16
2022-10-30T17:25:14.558Z,23.13
2022-10-30T17:27:47.208Z,23.06
2022-10-30T17:30:41.775Z,23.25
2022-10-30T17:33:34.561Z,23.29
2022-10-30T17:36:01.998Z,23.15
2022-10-30T17:38:29.108Z,23.07
2022-10-30T17:40:57.799Z,23.00
2022-10-30T17:43:29.018Z,22.99
2022-10-30T17:45:56.156Z,22.96
2022-10-30T17:48:27.096Z,22.92
2022-10-30T17:50:54.421Z,22.85
2022-10-30T17:53:24.297Z,22.84
2022-10-30T17:56:00.601Z,22.86
2022-10-30T17:58:27.700Z,22.87
2022-10-30T18:00:54.851Z,22.88
2022-10-30T18:03:21.916Z,22.88
2022-10-30T18:05:49.279Z,22.81
2022-10-30T18:08:16.337Z,22.77
2022-10-30T18:10:43.418Z,22.77
2022-10-30T18:13:12.958Z,22.81
2022-10-30T18:15:44.136Z,22.84
2022-10-30T18:18:12.272Z,22.84
2022-10-30T18:20:39.396Z,22.82
2022-10-30T18:23:46.439Z,22.82
2022-10-30T18:26:06.439Z,22.79
2022-10-30T18:28:35.077Z,22.80
2022-10-30T18:31:02.157Z,22.81
2022-10-30T18:33:29.196Z,22.82
2022-10-30T18:35:59.097Z,22.77
2022-10-30T18:38:26.238Z,22.70
2022-10-30T18:40:53.742Z,22.74
2022-10-30T18:43:20.868Z,22.72
2022-10-30T18:45:49.397Z,22.74
2022-10-30T18:48:16.518Z,22.69
2022-10-30T18:50:43.597Z,22.67
2022-10-30T18:53:16.716Z,22.64
2022-10-30T18:55:44.943Z,22.56
2022-10-30T18:58:12.437Z,22.55
2022-10-30T19:01:09.982Z,22.52
2022-10-30T19:03:29.278Z,22.49
2022-10-30T19:05:56.376Z,22.45
2022-10-30T19:08:23.537Z,22.42
2022-10-30T19:10:50.606Z,22.42
2022-10-30T19:13:20.559Z,22.55
2022-10-30T19:15:50.098Z,22.70
2022-10-30T19:18:17.936Z,22.76
2022-10-30T19:23:33.897Z,22.84
2022-10-30T19:26:01.206Z,22.81
2022-10-30T19:28:28.416Z,22.90
2022-10-30T19:30:55.458Z,23.01
2022-10-30T19:33:24.235Z,22.98
2022-10-30T19:35:57.498Z,22.99
2022-10-30T19:38:24.719Z,23.03
2022-10-30T19:40:52.056Z,23.05
2022-10-30T19:43:19.517Z,23.04
2022-10-30T19:45:49.042Z,23.04
2022-10-30T19:48:40.712Z,23.02
2022-10-30T19:51:09.335Z,23.02
2022-10-30T19:53:36.455Z,23.09
2022-10-30T19:56:03.977Z,23.13
2022-10-30T19:58:31.077Z,23.15
2022-10-30T20:00:58.231Z,23.09
2022-10-30T20:03:25.499Z,23.09
2022-10-30T20:05:52.559Z,23.06
2022-10-30T20:08:22.883Z,23.05
2022-10-30T20:10:52.517Z,23.01
2022-10-30T20:13:20.120Z,22.98
2022-10-30T20:15:47.416Z,22.98
2022-10-30T20:18:16.840Z,22.95
2022-10-30T20:20:49.604Z,23.09
2022-10-30T20:23:17.055Z,23.01
2022-10-30T20:25:46.338Z,23.08
2022-10-30T20:28:23.789Z,22.76
2022-10-30T20:30:51.916Z,22.56
2022-10-30T20:33:19.822Z,22.43
2022-10-30T20:35:48.316Z,22.30
2022-10-30T20:38:18.547Z,22.20
2022-10-30T20:40:48.402Z,22.09
2022-10-30T20:43:18.937Z,22.03
2022-10-30T20:45:47.519Z,21.99
2022-10-30T20:48:15.056Z,21.89
2022-10-30T20:50:43.780Z,21.86
2022-10-30T20:53:14.016Z,21.85
2022-10-30T20:55:41.240Z,21.83
2022-10-30T20:58:10.317Z,21.80
2022-10-30T21:00:38.496Z,21.80
2022-10-30T21:03:06.879Z,21.77
2022-10-30T21:05:44.427Z,21.74
2022-10-30T21:08:13.096Z,21.71
2022-10-30T21:10:41.528Z,21.65
2022-10-30T21:13:11.360Z,21.60
2022-10-30T21:15:39.719Z,21.54
2022-10-30T21:18:08.825Z,21.54
2022-10-30T21:20:36.337Z,21.52
2022-10-30T21:23:03.596Z,21.58
2022-10-30T21:25:30.718Z,21.56
2022-10-30T21:27:59.302Z,21.67
2022-10-30T21:30:28.641Z,21.72
2022-10-30T21:32:55.717Z,21.81
2022-10-30T21:35:22.860Z,21.84
2022-10-30T21:37:50.178Z,21.79
2022-10-30T21:40:17.819Z,21.77
2022-10-30T21:42:47.836Z,21.81
2022-10-30T21:45:15.095Z,21.80
2022-10-30T21:47:43.556Z,21.86
2022-10-30T21:50:12.627Z,21.91
2022-10-30T21:52:40.318Z,21.98
2022-10-30T21:55:08.363Z,22.01
2022-10-30T21:57:35.957Z,22.01
2022-10-30T22:00:05.774Z,22.05
2022-10-30T22:02:35.898Z,22.06
2022-10-30T22:05:05.056Z,22.02
2022-10-30T22:07:32.156Z,21.94
2022-10-30T22:09:59.216Z,21.90
2022-10-30T22:12:26.318Z,21.78
2022-10-30T22:14:53.456Z,21.72
2022-10-30T22:17:20.555Z,21.69
2022-10-30T22:19:47.765Z,21.67
2022-10-30T22:22:16.336Z,21.69
2022-10-30T22:24:43.459Z,22.06
2022-10-30T22:27:10.676Z,22.18
2022-10-30T22:29:37.998Z,22.28
2022-10-30T22:32:05.216Z,22.29
2022-10-30T22:34:32.356Z,22.42
2022-10-30T22:36:59.439Z,22.44
2022-10-30T22:39:27.976Z,22.46
2022-10-30T22:41:55.139Z,22.45
2022-10-30T22:44:22.405Z,22.43
2022-10-30T22:46:49.617Z,22.16
2022-10-30T22:49:16.876Z,21.95
2022-10-30T22:51:44.119Z,21.83
2022-10-30T22:54:12.537Z,21.76
2022-10-30T22:56:41.917Z,21.71
2022-10-30T22:59:12.521Z,21.62
2022-10-30T23:01:41.360Z,21.58
2022-10-30T23:04:11.298Z,21.55
2022-10-30T23:06:38.599Z,21.51
2022-10-30T23:09:07.909Z,21.47
2022-10-30T23:11:35.317Z,21.43
2022-10-30T23:14:03.976Z,21.43
2022-10-30T23:16:31.560Z,21.42
2022-10-30T23:19:00.456Z,21.40
2022-10-30T23:21:29.809Z,21.37
2022-10-30T23:23:57.318Z,21.38
2022-10-30T23:26:27.297Z,21.38
2022-10-30T23:28:55.615Z,21.39
2022-10-30T23:31:26.736Z,21.38
2022-10-30T23:33:56.375Z,21.41
2022-10-30T23:36:24.597Z,21.38
2022-10-30T23:38:52.536Z,21.36
2022-10-30T23:41:19.876Z,21.35
2022-10-30T23:43:46.976Z,21.33
2022-10-30T23:46:14.076Z,21.30
2022-10-30T23:48:42.612Z,21.31
2022-10-30T23:51:10.397Z,21.34
2022-10-30T23:53:37.436Z,21.32
2022-10-30T23:56:05.398Z,21.32
2022-10-30T23:58:32.999Z,21.28
